Impacts TAF Board
For situational awareness. Not to be used for flight planning purposes.
IDs:

KLAX - Los Angeles Intl, CA, US

Issued at 2347 UTC 23 May 2019
Updated at 0045 UTC 24 May 2019
Potential Impact None Slight Moderate High
Time2353Z 24/01Z 24/02Z 24/03Z 24/04Z 24/05Z 24/06Z 24/07Z 24/08Z 24/09Z 24/10Z 24/11Z 24/12Z 24/13Z>>
Type OBS PRVL PRVL PRVL PRVL PRVL PRVL PRVL PRVL PRVL PRVL PRVL PRVL PRVL
VIS 10 >6 >6 >6 >6 >6 >6 >6 >6 >6 >6 >6 >6 >6
CIG 35 30 30 30 30 30 25 25 25 25 25 25 25 25
Cover OVC BKN BKN BKN BKN BKN OVC OVC OVC OVC OVC OVC OVC OVC
FltCat VFR MVFR MVFR MVFR MVFR MVFR MVFR MVFR MVFR MVFR MVFR MVFR MVFR MVFR
WX -- -- -- -- -- -- -- -- -- -- -- -- -- --
WDir 250 230 230 230 230 230 VRB VRB VRB VRB VRB VRB VRB VRB
WSpd 7 11 11 11 11 11 3 3 3 3 3 3 3 3
WGst -- -- -- -- -- -- -- -- -- -- -- -- -- --
Raw TAF
KLAX 232347Z 2400/2506 23011KT P6SM BKN030
  FM240600 VRB03KT P6SM OVC025
  FM242000 26013KT P6SM SCT035


Raw METAR
KLAX 232353Z 25007KT 10SM OVC035 16/11 A3000 RMK AO2 SLP160 T01610106 10178 20161 53002
KLAX 232253Z 23008KT 10SM OVC032 17/10 A3000 RMK AO2 SLP157 T01670100
KLAX 232202Z 24008G16KT 10SM FEW019 OVC030 17/11 A3000 RMK AO2 T01670106
KLAX 232153Z 24011KT 10SM FEW019 OVC029 17/11 A3000 RMK AO2 SLP159 T01670106

METAR Board
Radar Display
Forecast Discussion
For situational awareness. Not to be used for flight planning purposes.